createdAt,value
2018-11-07T00:00:21.608Z,7.83
2018-11-07T00:02:49.706Z,7.57
2018-11-07T00:05:18.748Z,7.93
2018-11-07T00:07:46.936Z,7.97
2018-11-07T00:10:15.046Z,7.57
2018-11-07T00:12:43.099Z,6.97
2018-11-07T00:15:13.194Z,7.63
2018-11-07T00:17:41.288Z,7.03
2018-11-07T00:20:10.204Z,7.37
2018-11-07T00:22:38.538Z,7.10
2018-11-07T00:25:07.235Z,8.20
2018-11-07T00:27:35.298Z,7.00
2018-11-07T00:30:03.422Z,6.83
2018-11-07T00:32:31.515Z,7.30
2018-11-07T00:34:59.622Z,7.20
2018-11-07T00:37:27.694Z,6.67
2018-11-07T00:39:55.766Z,6.50
2018-11-07T00:42:23.889Z,7.50
2018-11-07T00:44:52.299Z,7.20
2018-11-07T00:47:20.363Z,7.10
2018-11-07T00:49:48.446Z,6.70
2018-11-07T00:52:16.530Z,6.70
2018-11-07T00:54:44.588Z,6.43
2018-11-07T00:57:12.676Z,6.37
2018-11-07T00:59:41.014Z,6.30
2018-11-07T01:02:09.103Z,5.63
2018-11-07T01:04:37.189Z,5.90
2018-11-07T01:07:05.286Z,5.87
2018-11-07T01:09:33.423Z,5.83
2018-11-07T01:12:01.432Z,5.27
2018-11-07T01:14:29.538Z,5.73
2018-11-07T01:16:57.682Z,5.30
2018-11-07T01:19:25.759Z,5.23
2018-11-07T01:21:53.838Z,6.17
2018-11-07T01:24:21.899Z,5.30
2018-11-07T01:26:50.294Z,5.20
2018-11-07T01:29:18.383Z,5.23
2018-11-07T01:31:46.451Z,4.80
2018-11-07T01:34:14.838Z,5.30
2018-11-07T01:36:42.930Z,5.80
2018-11-07T01:39:11.320Z,5.50
2018-11-07T01:41:39.890Z,4.87
2018-11-07T01:44:08.269Z,5.50
2018-11-07T01:46:36.631Z,5.67
2018-11-07T01:49:04.907Z,5.80
2018-11-07T01:51:32.979Z,4.97
2018-11-07T01:54:01.458Z,4.77
2018-11-07T01:56:29.806Z,5.50
2018-11-07T01:58:57.913Z,5.27
2018-11-07T02:01:26.003Z,5.80
2018-11-07T02:03:54.132Z,5.07
2018-11-07T02:06:22.222Z,5.50
2018-11-07T02:08:50.612Z,5.47
2018-11-07T02:11:18.755Z,5.17
2018-11-07T02:13:46.827Z,5.53
2018-11-07T02:16:14.915Z,4.97
2018-11-07T02:18:42.987Z,4.77
2018-11-07T02:21:11.058Z,4.80
2018-11-07T02:23:39.130Z,4.97
2018-11-07T02:26:07.199Z,5.30
2018-11-07T02:28:35.271Z,4.87
2018-11-07T02:31:03.363Z,5.00
2018-11-07T02:33:31.503Z,4.80
2018-11-07T02:35:59.577Z,4.80
2018-11-07T02:38:27.979Z,4.47
2018-11-07T02:40:56.048Z,4.83
2018-11-07T02:43:24.127Z,4.37
2018-11-07T02:45:52.207Z,3.90
2018-11-07T02:48:20.287Z,4.13
2018-11-07T02:50:48.390Z,3.90
2018-11-07T02:53:16.822Z,4.03
2018-11-07T02:55:44.882Z,3.87
2018-11-07T02:58:12.962Z,3.77
2018-11-07T03:00:41.296Z,3.37
2018-11-07T03:03:09.368Z,4.30
2018-11-07T03:05:37.439Z,3.73
2018-11-07T03:08:05.532Z,3.40
2018-11-07T03:10:33.671Z,3.27
2018-11-07T03:13:01.675Z,2.90
2018-11-07T03:15:30.078Z,3.30
2018-11-07T03:17:58.170Z,3.47
2018-11-07T03:20:26.251Z,3.33
2018-11-07T03:22:54.314Z,3.40
2018-11-07T03:25:22.415Z,2.87
2018-11-07T03:27:50.787Z,3.20
2018-11-07T03:30:18.888Z,3.17
2018-11-07T03:32:46.959Z,3.43
2018-11-07T03:35:20.391Z,2.90
2018-11-07T03:37:48.502Z,3.30
2018-11-07T03:40:16.586Z,3.00
2018-11-07T03:42:44.680Z,2.90
2018-11-07T03:45:12.766Z,3.07
2018-11-07T03:47:40.840Z,2.83
2018-11-07T03:50:08.911Z,3.07
2018-11-07T03:52:37.000Z,3.30
2018-11-07T03:55:05.346Z,2.60
2018-11-07T03:57:33.423Z,2.70
2018-11-07T04:00:01.497Z,2.70
2018-11-07T04:02:29.567Z,2.93
2018-11-07T04:04:57.647Z,2.90
2018-11-07T04:07:25.726Z,2.67
2018-11-07T04:09:53.834Z,2.77
2018-11-07T04:12:21.922Z,2.50
2018-11-07T04:14:49.986Z,2.73
2018-11-07T04:17:18.077Z,2.43
2018-11-07T04:19:46.167Z,2.67
2018-11-07T04:22:14.587Z,2.57
2018-11-07T04:24:42.720Z,2.20
2018-11-07T04:27:10.797Z,2.23
2018-11-07T04:29:38.868Z,2.20
2018-11-07T04:32:06.941Z,2.27
2018-11-07T04:34:35.030Z,2.10
2018-11-07T04:37:03.102Z,2.80
2018-11-07T04:39:31.181Z,2.33
2018-11-07T04:41:59.247Z,2.77
2018-11-07T04:44:27.322Z,2.60
2018-11-07T04:46:55.734Z,2.50
2018-11-07T04:49:23.859Z,3.13
2018-11-07T04:51:51.946Z,3.27
2018-11-07T04:54:20.014Z,2.50
2018-11-07T04:56:48.082Z,3.23
2018-11-07T04:59:16.461Z,2.93
2018-11-07T05:01:44.541Z,3.13
2018-11-07T05:04:12.638Z,3.33
2018-11-07T05:06:40.699Z,3.30
2018-11-07T05:09:09.374Z,3.30
2018-11-07T05:11:37.525Z,4.13
2018-11-07T05:14:05.726Z,4.03
2018-11-07T05:16:34.110Z,3.17
2018-11-07T05:19:02.191Z,3.57
2018-11-07T05:21:30.254Z,3.60
2018-11-07T05:23:58.322Z,3.87
2018-11-07T05:26:26.475Z,4.13
2018-11-07T05:28:54.455Z,3.70
2018-11-07T05:31:22.522Z,3.57
2018-11-07T05:33:50.594Z,3.13
2018-11-07T05:36:18.698Z,3.57
2018-11-07T05:38:46.798Z,3.70
2018-11-07T05:41:14.952Z,3.17
2018-11-07T05:43:42.990Z,3.37
2018-11-07T05:46:11.085Z,3.70
2018-11-07T05:48:39.166Z,4.00
2018-11-07T05:51:07.263Z,4.10
2018-11-07T05:53:35.334Z,4.17
2018-11-07T05:56:03.411Z,3.67
2018-11-07T05:58:31.501Z,3.80
2018-11-07T06:00:59.581Z,4.03
2018-11-07T06:03:27.654Z,3.57
2018-11-07T06:05:55.718Z,4.50
2018-11-07T06:08:23.790Z,3.53
2018-11-07T06:10:51.868Z,3.70
2018-11-07T06:13:20.229Z,4.30
2018-11-07T06:15:48.291Z,3.70
2018-11-07T06:18:16.366Z,3.70
2018-11-07T06:20:44.444Z,4.07
2018-11-07T06:23:12.524Z,4.20
2018-11-07T06:25:40.605Z,4.07
2018-11-07T06:28:08.703Z,4.43
2018-11-07T06:30:36.780Z,3.90
2018-11-07T06:33:05.171Z,3.90
2018-11-07T06:35:33.265Z,3.63
2018-11-07T06:38:01.681Z,3.53
2018-11-07T06:40:29.752Z,3.60
2018-11-07T06:42:57.826Z,3.17
2018-11-07T06:45:25.903Z,3.40
2018-11-07T06:47:54.008Z,4.50
2018-11-07T06:50:22.467Z,2.97
2018-11-07T06:52:50.539Z,3.70
2018-11-07T06:55:18.692Z,3.30
2018-11-07T06:57:46.732Z,3.57
2018-11-07T07:00:16.914Z,3.80
2018-11-07T07:02:46.506Z,3.53
2018-11-07T07:05:14.607Z,3.07
2018-11-07T07:07:42.680Z,3.03
2018-11-07T07:10:12.957Z,3.30
2018-11-07T07:12:41.127Z,3.03
2018-11-07T07:15:11.569Z,3.27
2018-11-07T07:17:39.714Z,2.93
2018-11-07T07:20:14.400Z,3.50
2018-11-07T07:22:43.054Z,3.50
2018-11-07T07:25:12.071Z,3.50
2018-11-07T07:27:40.758Z,3.40
2018-11-07T07:30:11.517Z,3.43
2018-11-07T07:32:40.652Z,3.90
2018-11-07T07:35:08.728Z,3.70
2018-11-07T07:37:36.792Z,3.67
2018-11-07T07:40:07.387Z,3.33
2018-11-07T07:42:35.435Z,3.47
2018-11-07T07:45:03.809Z,3.50
2018-11-07T07:47:31.878Z,3.40
2018-11-07T07:49:59.963Z,3.80
2018-11-07T07:52:28.107Z,3.07
2018-11-07T07:54:56.191Z,3.43
2018-11-07T07:57:24.259Z,3.33
2018-11-07T07:59:52.328Z,3.30
2018-11-07T08:02:20.455Z,3.40
2018-11-07T08:04:48.539Z,2.80
2018-11-07T08:07:16.651Z,2.87
2018-11-07T08:09:44.751Z,2.63
2018-11-07T08:12:14.176Z,2.80
2018-11-07T08:14:42.336Z,2.50
2018-11-07T08:17:10.439Z,2.27
2018-11-07T08:19:38.597Z,2.83
2018-11-07T08:22:06.705Z,2.57
2018-11-07T08:24:34.782Z,2.70
2018-11-07T08:27:02.860Z,2.60
2018-11-07T08:29:30.939Z,2.40
2018-11-07T08:31:59.015Z,2.60
2018-11-07T08:34:27.087Z,2.50
2018-11-07T08:36:55.236Z,2.30
2018-11-07T08:39:23.318Z,2.37
2018-11-07T08:41:51.390Z,3.00
2018-11-07T08:44:19.520Z,2.57
2018-11-07T08:46:47.726Z,2.90
2018-11-07T08:49:15.792Z,3.10
2018-11-07T08:51:43.871Z,2.77
2018-11-07T08:54:11.947Z,3.07
2018-11-07T08:56:40.258Z,2.80
2018-11-07T08:59:08.479Z,2.60
2018-11-07T09:04:05.492Z,2.57
2018-11-07T09:06:33.559Z,2.67
2018-11-07T09:09:01.638Z,2.70
2018-11-07T09:11:29.700Z,2.03
2018-11-07T09:13:57.795Z,2.23
2018-11-07T09:16:25.919Z,2.47
2018-11-07T09:18:53.978Z,2.10
2018-11-07T09:21:22.063Z,2.47
2018-11-07T09:23:50.140Z,2.30
2018-11-07T09:26:18.305Z,2.73
2018-11-07T09:28:46.647Z,2.30
2018-11-07T09:31:14.743Z,2.23
2018-11-07T09:33:42.891Z,2.00
2018-11-07T09:36:11.019Z,2.30
2018-11-07T09:38:39.108Z,2.77
2018-11-07T09:41:07.191Z,2.27
2018-11-07T09:43:35.282Z,2.40
2018-11-07T09:46:03.351Z,2.03
2018-11-07T09:48:31.470Z,2.50
2018-11-07T09:50:59.546Z,2.20
2018-11-07T09:53:27.674Z,2.37
2018-11-07T09:55:55.782Z,2.30
2018-11-07T09:58:23.895Z,2.13
2018-11-07T10:00:51.966Z,1.97
2018-11-07T10:03:20.039Z,1.90
2018-11-07T10:05:48.181Z,1.83
2018-11-07T10:08:16.260Z,1.90
2018-11-07T10:10:44.323Z,2.03
2018-11-07T10:13:12.417Z,2.23
2018-11-07T10:15:40.487Z,1.80
2018-11-07T10:18:08.571Z,2.10
2018-11-07T10:20:36.726Z,2.37
2018-11-07T10:23:04.875Z,2.10
2018-11-07T10:25:32.959Z,2.33
2018-11-07T10:28:01.262Z,2.03
2018-11-07T10:30:29.263Z,1.97
2018-11-07T10:32:57.268Z,2.00
2018-11-07T10:35:25.339Z,1.83
2018-11-07T10:37:53.525Z,1.70
2018-11-07T10:40:22.946Z,1.77
2018-11-07T10:42:51.052Z,1.73
2018-11-07T10:45:19.147Z,2.00
2018-11-07T10:47:48.056Z,1.57
2018-11-07T10:50:17.159Z,1.83
2018-11-07T10:52:45.850Z,1.80
2018-11-07T10:55:14.755Z,1.30
2018-11-07T10:57:42.869Z,1.50
2018-11-07T11:00:18.342Z,1.60
2018-11-07T11:02:47.759Z,1.50
2018-11-07T11:05:17.253Z,1.40
2018-11-07T11:07:45.259Z,1.47
2018-11-07T11:10:13.831Z,1.62
2018-11-07T11:12:42.711Z,1.50
2018-11-07T11:15:10.793Z,1.23
2018-11-07T11:17:38.843Z,1.10
2018-11-07T11:20:08.604Z,1.27
2018-11-07T11:22:36.709Z,1.70
2018-11-07T11:25:04.810Z,1.53
2018-11-07T11:27:32.967Z,1.30
2018-11-07T11:30:00.947Z,1.30
2018-11-07T11:32:29.020Z,1.10
2018-11-07T11:34:57.205Z,1.20
2018-11-07T11:37:25.259Z,1.47
2018-11-07T11:39:53.325Z,1.60
2018-11-07T11:42:21.415Z,1.47
2018-11-07T11:44:49.487Z,1.40
2018-11-07T11:47:17.565Z,1.80
2018-11-07T11:49:45.930Z,1.20
2018-11-07T11:52:14.010Z,1.30
2018-11-07T11:54:42.079Z,1.40
2018-11-07T11:57:10.166Z,1.43
2018-11-07T11:59:38.420Z,1.23
2018-11-07T12:02:06.597Z,1.60
2018-11-07T12:04:34.731Z,1.30
2018-11-07T12:07:02.812Z,1.40
2018-11-07T12:09:30.960Z,1.33
2018-11-07T12:11:59.097Z,1.60
2018-11-07T12:14:27.119Z,1.40
2018-11-07T12:16:55.175Z,1.70
2018-11-07T12:19:23.264Z,1.63
2018-11-07T12:21:51.379Z,1.90
2018-11-07T12:24:19.495Z,1.50
2018-11-07T12:26:47.899Z,1.30
2018-11-07T12:29:15.904Z,1.77
2018-11-07T12:31:43.973Z,1.47
2018-11-07T12:34:12.051Z,1.70
2018-11-07T12:36:40.144Z,1.93
2018-11-07T12:39:08.908Z,1.50
2018-11-07T12:41:36.991Z,1.40
2018-11-07T12:44:05.111Z,1.60
2018-11-07T12:46:33.204Z,1.87
2018-11-07T12:49:01.511Z,1.60
2018-11-07T12:51:29.874Z,1.37
2018-11-07T12:53:57.951Z,1.70
2018-11-07T12:56:26.027Z,1.33
2018-11-07T12:58:54.089Z,1.60
2018-11-07T13:01:22.163Z,1.20
2018-11-07T13:03:50.254Z,1.90
2018-11-07T13:06:18.331Z,1.43
2018-11-07T13:08:46.382Z,1.33
2018-11-07T13:11:14.539Z,1.37
2018-11-07T13:13:42.554Z,1.10
2018-11-07T13:16:10.683Z,1.63
2018-11-07T13:18:38.838Z,1.00
2018-11-07T13:21:06.974Z,1.62
2018-11-07T13:23:35.056Z,0.97
2018-11-07T13:26:03.099Z,1.50
2018-11-07T13:28:31.188Z,1.20
2018-11-07T13:30:59.259Z,1.10
2018-11-07T13:33:27.326Z,1.30
2018-11-07T13:35:55.396Z,1.00
2018-11-07T13:38:23.804Z,1.20
2018-11-07T13:40:51.942Z,1.40
2018-11-07T13:43:19.969Z,1.27
2018-11-07T13:45:48.074Z,1.07
2018-11-07T13:48:16.211Z,1.30
2018-11-07T13:50:44.291Z,1.20
2018-11-07T13:53:12.739Z,1.27
2018-11-07T13:55:40.738Z,1.27
2018-11-07T13:58:08.802Z,1.13
2018-11-07T14:00:36.874Z,1.27
2018-11-07T14:03:05.192Z,1.40
2018-11-07T14:05:33.453Z,1.30
2018-11-07T14:08:01.395Z,1.60
2018-11-07T14:10:29.535Z,1.40
2018-11-07T14:12:57.601Z,1.37
2018-11-07T14:15:25.659Z,1.60
2018-11-07T14:17:53.743Z,1.40
2018-11-07T14:20:21.811Z,1.70
2018-11-07T14:22:49.886Z,1.57
2018-11-07T14:25:18.008Z,1.70
2018-11-07T14:27:46.235Z,1.93
2018-11-07T14:30:15.434Z,2.20
2018-11-07T14:32:45.271Z,2.23
2018-11-07T14:35:13.379Z,1.67
2018-11-07T14:37:41.643Z,1.90
2018-11-07T14:40:09.907Z,1.70
2018-11-07T14:42:38.300Z,1.60
2018-11-07T14:45:07.287Z,1.60
2018-11-07T14:47:35.386Z,1.63
2018-11-07T14:50:03.683Z,1.80
2018-11-07T14:52:31.781Z,2.10
2018-11-07T14:54:59.871Z,2.27
2018-11-07T14:57:28.251Z,2.08
2018-11-07T14:59:56.330Z,1.47
2018-11-07T15:02:24.431Z,2.00
2018-11-07T15:04:52.551Z,1.70
2018-11-07T15:07:20.620Z,1.50
2018-11-07T15:09:48.699Z,2.03
2018-11-07T15:12:16.760Z,1.70
2018-11-07T15:14:45.042Z,2.30
2018-11-07T15:17:13.217Z,2.03
2018-11-07T15:19:41.275Z,1.97
2018-11-07T15:22:09.662Z,2.10
2018-11-07T15:24:37.727Z,1.80
2018-11-07T15:27:06.139Z,2.57
2018-11-07T15:29:34.222Z,2.40
2018-11-07T15:32:02.339Z,2.43
2018-11-07T15:34:30.424Z,2.47
2018-11-07T15:36:58.519Z,1.80
2018-11-07T15:39:26.671Z,2.03
2018-11-07T15:41:54.835Z,1.90
2018-11-07T15:44:23.245Z,2.23
2018-11-07T15:46:51.315Z,2.20
2018-11-07T15:49:19.388Z,2.10
2018-11-07T15:51:47.639Z,1.80
2018-11-07T15:54:15.599Z,2.33
2018-11-07T15:56:43.683Z,1.93
2018-11-07T15:59:11.751Z,1.80
2018-11-07T16:01:39.823Z,1.67
2018-11-07T16:04:07.903Z,2.17
2018-11-07T16:06:35.975Z,2.07
2018-11-07T16:09:05.790Z,2.20
2018-11-07T16:11:33.995Z,2.20
2018-11-07T16:14:02.063Z,1.57
2018-11-07T16:16:30.318Z,2.15
2018-11-07T16:18:58.495Z,1.67
2018-11-07T16:21:26.669Z,1.80
2018-11-07T16:23:55.363Z,1.80
2018-11-07T16:26:23.402Z,2.10
2018-11-07T16:28:51.645Z,1.97
2018-11-07T16:31:19.704Z,2.12
2018-11-07T16:33:48.056Z,1.93
2018-11-07T16:36:16.116Z,2.03
2018-11-07T16:38:44.293Z,1.70
2018-11-07T16:41:12.326Z,1.90
2018-11-07T16:43:40.808Z,1.67
2018-11-07T16:46:09.135Z,1.93
2018-11-07T16:48:37.497Z,2.03
2018-11-07T16:51:05.622Z,2.07
2018-11-07T16:53:33.695Z,2.10
2018-11-07T16:56:01.784Z,1.83
2018-11-07T16:58:30.155Z,1.70
2018-11-07T17:00:59.188Z,1.87
2018-11-07T17:03:27.260Z,1.80
2018-11-07T17:05:55.315Z,1.80
2018-11-07T17:08:23.413Z,1.67
2018-11-07T17:10:51.799Z,2.20
2018-11-07T17:13:19.887Z,2.03
2018-11-07T17:15:48.037Z,1.70
2018-11-07T17:18:16.146Z,1.30
2018-11-07T17:20:44.263Z,1.90
2018-11-07T17:23:18.526Z,1.87
2018-11-07T17:25:40.462Z,1.93
2018-11-07T17:28:08.590Z,1.67
2018-11-07T17:30:36.953Z,1.97
2018-11-07T17:33:05.262Z,1.60
2018-11-07T17:35:33.322Z,1.70
2018-11-07T17:38:01.436Z,1.70
2018-11-07T17:40:29.518Z,1.77
2018-11-07T17:42:57.622Z,1.83
2018-11-07T17:45:25.941Z,1.50
2018-11-07T17:47:54.076Z,1.50
2018-11-07T17:50:22.838Z,1.80
2018-11-07T17:52:51.505Z,1.40
2018-11-07T17:55:20.402Z,1.47
2018-11-07T17:57:48.569Z,1.30
2018-11-07T18:00:19.170Z,1.60
2018-11-07T18:02:47.359Z,1.53
2018-11-07T18:05:15.466Z,1.70
2018-11-07T18:07:43.640Z,1.60
2018-11-07T18:10:16.007Z,1.60
2018-11-07T18:12:44.457Z,1.40
2018-11-07T18:15:12.810Z,1.50
2018-11-07T18:17:40.896Z,1.73
2018-11-07T18:20:10.588Z,1.23
2018-11-07T18:22:38.692Z,1.53
2018-11-07T18:25:07.942Z,1.60
2018-11-07T18:27:36.059Z,2.13
2018-11-07T18:30:04.678Z,1.63
2018-11-07T18:32:32.811Z,1.90
2018-11-07T18:35:00.976Z,2.07
2018-11-07T18:37:29.036Z,1.70
2018-11-07T18:39:57.126Z,1.87
2018-11-07T18:42:25.196Z,1.50
2018-11-07T18:44:53.306Z,1.73
2018-11-07T18:47:21.382Z,1.77
2018-11-07T18:49:49.511Z,2.13
2018-11-07T18:52:17.642Z,1.60
2018-11-07T18:54:45.781Z,1.53
2018-11-07T18:57:13.858Z,1.80
2018-11-07T18:59:41.975Z,1.80
2018-11-07T19:02:10.050Z,2.33
2018-11-07T19:04:38.263Z,2.50
2018-11-07T19:07:06.351Z,2.60
2018-11-07T19:09:34.479Z,4.30
2018-11-07T19:12:02.588Z,4.73
2018-11-07T19:14:30.671Z,4.60
2018-11-07T19:16:58.771Z,4.27
2018-11-07T19:19:27.094Z,3.90
2018-11-07T19:21:55.227Z,4.23
2018-11-07T19:24:23.334Z,6.37
2018-11-07T19:26:51.712Z,4.00
2018-11-07T19:29:19.824Z,3.00
2018-11-07T19:31:47.923Z,2.97
2018-11-07T19:34:16.038Z,2.80
2018-11-07T19:36:44.119Z,2.80
2018-11-07T19:39:12.275Z,2.27
2018-11-07T19:41:40.359Z,2.07
2018-11-07T19:44:08.474Z,2.23
2018-11-07T19:46:36.824Z,1.93
2018-11-07T19:49:05.688Z,2.10
2018-11-07T19:51:34.007Z,1.63
2018-11-07T19:54:02.352Z,1.73
2018-11-07T19:56:30.446Z,2.00
2018-11-07T19:58:58.558Z,2.23
2018-11-07T20:01:26.703Z,1.60
2018-11-07T20:03:54.829Z,1.90
2018-11-07T20:06:22.949Z,1.90
2018-11-07T20:08:51.075Z,1.83
2018-11-07T20:11:19.474Z,2.00
2018-11-07T20:13:47.636Z,2.10
2018-11-07T20:16:15.708Z,2.00
2018-11-07T20:18:44.088Z,1.60
2018-11-07T20:21:12.159Z,2.07
2018-11-07T20:23:40.239Z,1.87
2018-11-07T20:26:08.331Z,1.97
2018-11-07T20:28:36.432Z,1.80
2018-11-07T20:31:04.737Z,1.70
2018-11-07T20:33:33.134Z,1.80
2018-11-07T20:36:01.305Z,1.93
2018-11-07T20:38:29.319Z,1.70
2018-11-07T20:40:57.393Z,1.63
2018-11-07T20:43:25.456Z,1.60
2018-11-07T20:45:53.551Z,1.93
2018-11-07T20:48:21.981Z,1.50
2018-11-07T20:50:50.149Z,1.90
2018-11-07T20:53:18.223Z,1.93
2018-11-07T20:55:46.304Z,2.03
2018-11-07T20:58:14.392Z,1.63
2018-11-07T21:00:42.448Z,1.77
2018-11-07T21:03:10.530Z,1.50
2018-11-07T21:05:38.605Z,1.70
2018-11-07T21:08:06.672Z,1.40
2018-11-07T21:10:34.750Z,1.87
2018-11-07T21:13:02.841Z,1.70
2018-11-07T21:15:30.928Z,1.83
2018-11-07T21:17:59.003Z,1.70
2018-11-07T21:20:27.075Z,2.03
2018-11-07T21:22:55.151Z,1.90
2018-11-07T21:25:23.267Z,1.30
2018-11-07T21:27:51.356Z,1.60
2018-11-07T21:30:19.414Z,2.07
2018-11-07T21:32:47.488Z,2.00
2018-11-07T21:35:15.716Z,2.17
2018-11-07T21:37:43.646Z,2.07
2018-11-07T21:40:13.874Z,2.10
2018-11-07T21:42:42.127Z,2.03
2018-11-07T21:45:11.664Z,1.60
2018-11-07T21:47:40.419Z,1.80
2018-11-07T21:50:09.939Z,1.70
2018-11-07T21:52:38.297Z,2.30
2018-11-07T21:55:06.606Z,1.67
2018-11-07T21:57:34.849Z,1.90
2018-11-07T22:00:02.958Z,2.00
2018-11-07T22:02:31.497Z,2.07
2018-11-07T22:04:59.553Z,2.17
2018-11-07T22:07:27.630Z,2.10
2018-11-07T22:09:56.006Z,1.90
2018-11-07T22:12:24.067Z,1.60
2018-11-07T22:14:52.164Z,2.40
2018-11-07T22:17:20.447Z,1.90
2018-11-07T22:19:48.606Z,1.70
2018-11-07T22:22:16.715Z,1.70
2018-11-07T22:24:44.986Z,1.87
2018-11-07T22:27:13.080Z,2.13
2018-11-07T22:29:41.142Z,1.93
2018-11-07T22:32:09.329Z,2.07
2018-11-07T22:34:37.401Z,3.10
2018-11-07T22:37:06.267Z,2.03
2018-11-07T22:39:34.611Z,1.90
2018-11-07T22:42:02.883Z,1.97
2018-11-07T22:44:30.923Z,2.00
2018-11-07T22:46:59.275Z,2.10
2018-11-07T22:49:27.391Z,2.13
2018-11-07T22:51:55.486Z,2.17
2018-11-07T22:54:23.706Z,2.23
2018-11-07T22:56:51.870Z,2.60
2018-11-07T22:59:19.956Z,2.17
2018-11-07T23:01:48.281Z,2.13
2018-11-07T23:04:16.534Z,2.30
2018-11-07T23:06:44.603Z,2.60
2018-11-07T23:09:14.451Z,2.40
2018-11-07T23:11:43.977Z,2.60
2018-11-07T23:14:16.052Z,2.40
2018-11-07T23:16:44.318Z,2.30
2018-11-07T23:19:12.741Z,2.10
2018-11-07T23:21:40.803Z,1.80
2018-11-07T23:24:09.254Z,2.30
2018-11-07T23:26:37.604Z,2.47
2018-11-07T23:29:05.854Z,2.00
2018-11-07T23:31:34.063Z,2.23
2018-11-07T23:34:02.589Z,2.20
2018-11-07T23:36:30.951Z,2.20
2018-11-07T23:38:59.038Z,2.10
2018-11-07T23:41:27.097Z,2.27
2018-11-07T23:43:55.168Z,1.93
2018-11-07T23:46:23.241Z,2.10
2018-11-07T23:48:51.311Z,2.20
2018-11-07T23:51:19.416Z,2.37
2018-11-07T23:53:47.488Z,2.50
2018-11-07T23:56:15.580Z,1.83
2018-11-07T23:58:43.652Z,2.40
